Map

Track Data

SID SEASON NUMBER BASIN SUBBASIN NAME ISO_TIME NATURE LAT LON WMO_WIND WMO_PRES WMO_AGENCY TRACK_TYPE DIST2LAND LANDFALL IFLAG USA_AGENCY USA_ATCF_ID USA_LAT USA_LON USA_RECORD USA_STATUS USA_WIND USA_PRES USA_SSHS USA_R34_NE USA_R34_SE USA_R34_SW USA_R34_NW USA_R50_NE USA_R50_SE USA_R50_SW USA_R50_NW USA_R64_NE USA_R64_SE USA_R64_SW USA_R64_NW USA_POCI USA_ROCI USA_RMW USA_EYE TOKYO_LAT TOKYO_LON TOKYO_GRADE TOKYO_WIND TOKYO_PRES TOKYO_R50_DIR TOKYO_R50_LONG TOKYO_R50_SHORT TOKYO_R30_DIR TOKYO_R30_LONG TOKYO_R30_SHORT TOKYO_LAND CMA_LAT CMA_LON CMA_CAT CMA_WIND CMA_PRES HKO_LAT HKO_LON HKO_CAT HKO_WIND HKO_PRES NEWDELHI_LAT NEWDELHI_LON NEWDELHI_GRADE NEWDELHI_WIND NEWDELHI_PRES NEWDELHI_CI NEWDELHI_DP NEWDELHI_POCI REUNION_LAT REUNION_LON REUNION_TYPE REUNION_WIND REUNION_PRES REUNION_TNUM REUNION_CI REUNION_RMW REUNION_R34_NE REUNION_R34_SE REUNION_R34_SW REUNION_R34_NW REUNION_R50_NE REUNION_R50_SE REUNION_R50_SW REUNION_R50_NW REUNION_R64_NE REUNION_R64_SE REUNION_R64_SW REUNION_R64_NW BOM_LAT BOM_LON BOM_TYPE BOM_WIND BOM_PRES BOM_TNUM BOM_CI BOM_RMW BOM_R34_NE BOM_R34_SE BOM_R34_SW BOM_R34_NW BOM_R50_NE BOM_R50_SE BOM_R50_SW BOM_R50_NW BOM_R64_NE BOM_R64_SE BOM_R64_SW BOM_R64_NW BOM_ROCI BOM_POCI BOM_EYE BOM_POS_METHOD BOM_PRES_METHOD NADI_LAT NADI_LON NADI_CAT NADI_WIND NADI_PRES WELLINGTON_LAT WELLINGTON_LON WELLINGTON_WIND WELLINGTON_PRES DS824_LAT DS824_LON DS824_STAGE DS824_WIND DS824_PRES TD9636_LAT TD9636_LON TD9636_STAGE TD9636_WIND TD9636_PRES TD9635_LAT TD9635_LON TD9635_WIND TD9635_PRES TD9635_ROCI NEUMANN_LAT NEUMANN_LON NEUMANN_CLASS NEUMANN_WIND NEUMANN_PRES MLC_LAT MLC_LON MLC_CLASS MLC_WIND MLC_PRES USA_GUST BOM_GUST BOM_GUST_PER REUNION_GUST REUNION_GUST_PER USA_SEAHGT USA_SEARAD_NE USA_SEARAD_SE USA_SEARAD_SW USA_SEARAD_NW STORM_SPEED STORM_DIR
1891032S12075 1891 1 SI MM NOT_NAMED 1891-02-01 06:00:00 NR -11.5000 75.0000 reunion spur-split 2045 2045 _____O________ -1 -11.5000 75.0000 99 9.90000 3 258
1891032S12075 1891 1 SI MM NOT_NAMED 1891-02-01 09:00:00 NR -11.5266 74.8689 spur-split 2049 2049 _____P________ -1 -11.5266 74.8689 99 3 258
1891032S12075 1891 1 SI MM NOT_NAMED 1891-02-01 12:00:00 NR -11.5554 74.7242 spur-split 2050 2041 _____P________ -1 -11.5554 74.7242 99 3 259
1891032S12075 1891 1 SI MM NOT_NAMED 1891-02-01 15:00:00 NR -11.5887 74.5522 spur-split 2041 2022 _____P________ -1 -11.5887 74.5522 99 4 259
1891032S12075 1891 1 SI MM NOT_NAMED 1891-02-01 18:00:00 NR -11.6289 74.3391 spur-split 2012 1988 _____P________ -1 -11.6289 74.3391 99 5 259
1891032S12075 1891 1 SI MM NOT_NAMED 1891-02-01 21:00:00 NR -11.6780 74.0712 spur-split 1988 1960 _____P________ -1 -11.6780 74.0712 99 6 260
1891032S12075 1891 1 SI MM NOT_NAMED 1891-02-02 00:00:00 NR -11.7382 73.7347 spur-split 1950 1907 _____P________ -1 -11.7382 73.7347 99 8 260
1891032S12075 1891 1 SI MM NOT_NAMED 1891-02-02 03:00:00 NR -11.8116 73.3156 spur-split 1907 1855 _____P________ -1 -11.8116 73.3156 99 9 260
1891032S12075 1891 1 SI MM NOT_NAMED 1891-02-02 06:00:00 NR -11.9000 72.8000 reunion spur-split 1855 1793 _____O________ -1 -11.9000 72.8000 99 9.90000 11 260
1891032S12075 1891 1 SI MM NOT_NAMED 1891-02-02 09:00:00 NR -12.0042 72.1801 spur-split 1793 1723 _____P________ -1 -12.0042 72.1801 99 13 260
1891032S12075 1891 1 SI MM NOT_NAMED 1891-02-02 12:00:00 NR -12.1214 71.4737 spur-split 1723 1645 _____P________ -1 -12.1214 71.4737 99 15 260
1891032S12075 1891 1 SI MM NOT_NAMED 1891-02-02 15:00:00 NR -12.2476 70.7055 spur-split 1645 1560 _____P________ -1 -12.2476 70.7055 99 16 260
1891032S12075 1891 1 SI MM NOT_NAMED 1891-02-02 18:00:00 NR -12.3794 69.8998 spur-split 1560 1483 _____P________ -1 -12.3794 69.8998 99 16 260
1891032S12075 1891 1 SI MM NOT_NAMED 1891-02-02 21:00:00 NR -12.5134 69.0816 spur-split 1483 1407 _____P________ -1 -12.5134 69.0816 99 16 260
1891032S12075 1891 1 SI MM NOT_NAMED 1891-02-03 00:00:00 NR -12.6467 68.2757 spur-split 1407 1325 _____P________ -1 -12.6467 68.2757 99 16 260
1891032S12075 1891 1 SI MM NOT_NAMED 1891-02-03 03:00:00 NR -12.7763 67.5069 spur-split 1325 1260 _____P________ -1 -12.7763 67.5069 99 15 260
1891032S12075 1891 1 SI MM NOT_NAMED 1891-02-03 06:00:00 NR -12.9000 66.8000 reunion spur-split 1260 1212 _____O________ -1 -12.9000 66.8000 99 9.90000 13 260
1891032S12075 1891 1 SI MM NOT_NAMED 1891-02-03 09:00:00 NR -13.0008 66.2439 spur-split 1204 1165 _____P________ -1 -13.0008 66.2439 99 11 259
1891032S12075 1891 1 SI MM NOT_NAMED 1891-02-03 12:00:00 NR -13.0974 65.7405 spur-split 1157 1118 _____P________ -1 -13.0974 65.7405 99 10 258
1891032S12075 1891 1 SI MM NOT_NAMED 1891-02-03 15:00:00 NR -13.1921 65.2803 spur-split 1118 1080 _____P________ -1 -13.1921 65.2803 99 9 258
1891032S12075 1891 1 SI MM NOT_NAMED 1891-02-03 18:00:00 NR -13.2866 64.8540 spur-split 1080 1042 _____P________ -1 -13.2866 64.8540 99 8 257
1891032S12075 1891 1 SI MM NOT_NAMED 1891-02-03 21:00:00 NR -13.3829 64.4522 spur-split 1042 1004 _____P________ -1 -13.3829 64.4522 99 8 256
1891032S12075 1891 1 SI MM NOT_NAMED 1891-02-04 00:00:00 NR -13.4828 64.0655 spur-split 1004 967 _____P________ -1 -13.4828 64.0655 99 8 255
1891032S12075 1891 1 SI MM NOT_NAMED 1891-02-04 03:00:00 NR -13.5879 63.6845 spur-split 967 931 _____P________ -1 -13.5879 63.6845 99 8 254
1891032S12075 1891 1 SI MM NOT_NAMED 1891-02-04 06:00:00 NR -13.7000 63.3000 reunion spur-split 931 895 _____O________ -1 -13.7000 63.3000 99 9.90000 8 255
1891032S12075 1891 1 SI MM NOT_NAMED 1891-02-04 09:00:00 NR -13.7992 62.8975 spur-split 895 861 _____P________ -1 -13.7992 62.8975 99 8 255
1891032S12075 1891 1 SI MM NOT_NAMED 1891-02-04 12:00:00 NR -13.9021 62.5007 spur-split 861 827 _____P________ -1 -13.9021 62.5007 99 8 255
1891032S12075 1891 1 SI MM NOT_NAMED 1891-02-04 15:00:00 NR -14.0123 62.1036 spur-split 827 794 _____P________ -1 -14.0123 62.1036 99 8 253
1891032S12075 1891 1 SI MM NOT_NAMED 1891-02-04 18:00:00 NR -14.1336 61.7001 spur-split 794 753 _____P________ -1 -14.1336 61.7001 99 8 252
1891032S12075 1891 1 SI MM NOT_NAMED 1891-02-04 21:00:00 NR -14.2694 61.2842 spur-split 753 722 _____P________ -1 -14.2694 61.2842 99 9 251
1891032S12075 1891 1 SI MM NOT_NAMED 1891-02-05 00:00:00 NR -14.4234 60.8497 spur-split 717 678 _____P________ -1 -14.4234 60.8497 99 9 249
1891032S12075 1891 1 SI MM NOT_NAMED 1891-02-05 03:00:00 NR -14.5991 60.3904 spur-split 678 637 _____P________ -1 -14.5991 60.3904 99 10 248
1891032S12075 1891 1 SI MM NOT_NAMED 1891-02-05 06:00:00 NR -14.8000 59.9000 reunion spur-split 637 598 _____O________ -1 -14.8000 59.9000 99 9.90000 11 248
1891032S12075 1891 1 SI MM NOT_NAMED 1891-02-05 09:00:00 NR -15.0107 59.3160 spur-split 595 558 _____P________ -1 -15.0107 59.3160 99 12 249
1891032S12075 1891 1 SI MM NOT_NAMED 1891-02-05 12:00:00 NR -15.2438 58.6949 spur-split 558 516 _____P________ -1 -15.2438 58.6949 99 13 248
1891032S12075 1891 1 SI MM NOT_NAMED 1891-02-05 15:00:00 NR -15.4989 58.0511 spur-split 516 481 _____P________ -1 -15.4989 58.0511 99 14 247
1891032S12075 1891 1 SI MM NOT_NAMED 1891-02-05 18:00:00 NR -15.7757 57.3991 spur-split 481 453 _____P________ -1 -15.7757 57.3991 99 14 245
1891032S12075 1891 1 SI MM NOT_NAMED 1891-02-05 21:00:00 NR -16.0742 56.7534 spur-split 453 436 _____P________ -1 -16.0742 56.7534 99 14 243
1891032S12075 1891 1 SI MM NOT_NAMED 1891-02-06 00:00:00 NR -16.3942 56.1285 spur-split 439 425 _____P________ -1 -16.3942 56.1285 99 13 240
1891032S12075 1891 1 SI MM NOT_NAMED 1891-02-06 03:00:00 NR -16.7360 55.5392 spur-split 434 420 _____P________ -1 -16.7360 55.5392 99 13 237
1891032S12075 1891 1 SI MM NOT_NAMED 1891-02-06 06:00:00 NR -17.1000 55.0000 reunion spur-split 426 400 _____O________ -1 -17.1000 55.0000 99 9.90000 12 233
1891032S12075 1891 1 SI MM NOT_NAMED 1891-02-06 09:00:00 NR -17.4820 54.5077 spur-split 400 368 _____P________ -1 -17.4820 54.5077 99 12 229
1891032S12075 1891 1 SI MM NOT_NAMED 1891-02-06 12:00:00 NR -17.8903 54.0555 spur-split 368 345 _____P________ -1 -17.8903 54.0555 99 12 224
1891032S12075 1891 1 SI MM NOT_NAMED 1891-02-06 15:00:00 NR -18.3196 53.6452 spur-split 350 325 _____P________ -1 -18.3196 53.6452 99 11 220
1891032S12075 1891 1 SI MM NOT_NAMED 1891-02-06 18:00:00 NR -18.7647 53.2789 spur-split 322 312 _____P________ -1 -18.7647 53.2789 99 11 216
1891032S12075 1891 1 SI MM NOT_NAMED 1891-02-06 21:00:00 NR -19.2206 52.9590 spur-split 312 301 _____P________ -1 -19.2206 52.9590 99 11 211
1891032S12075 1891 1 SI MM NOT_NAMED 1891-02-07 00:00:00 NR -19.6819 52.6875 spur-split 303 302 _____P________ -1 -19.6819 52.6875 99 10 207
1891032S12075 1891 1 SI MM NOT_NAMED 1891-02-07 03:00:00 NR -20.1435 52.4670 spur-split 302 298 _____P________ -1 -20.1435 52.4670 99 10 202
1891032S12075 1891 1 SI MM NOT_NAMED 1891-02-07 06:00:00 NR -20.6000 52.3000 reunion spur-split 306 304 _____O________ -1 -20.6000 52.3000 99 9.90000 9 197
1891032S12075 1891 1 SI MM NOT_NAMED 1891-02-07 09:00:00 NR -21.0399 52.1647 spur-split 311 311 _____P________ -1 -21.0399 52.1647 99 9 193
1891032S12075 1891 1 SI MM NOT_NAMED 1891-02-07 12:00:00 NR -21.4795 52.0873 spur-split 324 324 _____P________ -1 -21.4795 52.0873 99 9 186
1891032S12075 1891 1 SI MM NOT_NAMED 1891-02-07 15:00:00 NR -21.9170 52.0601 spur-split 332 332 _____P________ -1 -21.9170 52.0601 99 9 0
1891032S12075 1891 1 SI MM NOT_NAMED 1891-02-07 18:00:00 NR -22.3502 52.0753 spur-split 351 351 _____P________ -1 -22.3502 52.0753 99 9 176
1891032S12075 1891 1 SI MM NOT_NAMED 1891-02-07 21:00:00 NR -22.7772 52.1249 spur-split 369 365 _____P________ -1 -22.7772 52.1249 99 9 172
1891032S12075 1891 1 SI MM NOT_NAMED 1891-02-08 00:00:00 NR -23.1959 52.2010 spur-split 383 383 _____P________ -1 -23.1959 52.2010 99 8 169
1891032S12075 1891 1 SI MM NOT_NAMED 1891-02-08 03:00:00 NR -23.6042 52.2954 spur-split 401 401 _____P________ -1 -23.6042 52.2954 99 8 167
1891032S12075 1891 1 SI MM NOT_NAMED 1891-02-08 06:00:00 NR -24.0000 52.4000 reunion spur-split 423 423 _____O________ -1 -24.0000 52.4000 99 9.90000 8 168
1891032S12075 1891 1 SI MM NOT_NAMED 1891-02-08 09:00:00 NR -24.3702 52.4678 spur-split 449 449 _____P________ -1 -24.3702 52.4678 99 7 170
1891032S12075 1891 1 SI MM NOT_NAMED 1891-02-08 12:00:00 NR -24.7268 52.5516 spur-split 469 469 _____P________ -1 -24.7268 52.5516 99 7 167
1891032S12075 1891 1 SI MM NOT_NAMED 1891-02-08 15:00:00 NR -25.0737 52.6499 spur-split 506 500 _____P________ -1 -25.0737 52.6499 99 7 165
1891032S12075 1891 1 SI MM NOT_NAMED 1891-02-08 18:00:00 NR -25.4148 52.7609 spur-split 524 524 _____P________ -1 -25.4148 52.7609 99 7 163
1891032S12075 1891 1 SI MM NOT_NAMED 1891-02-08 21:00:00 NR -25.7541 52.8831 spur-split 559 559 _____P________ -1 -25.7541 52.8831 99 7 162
1891032S12075 1891 1 SI MM NOT_NAMED 1891-02-09 00:00:00 NR -26.0955 53.0148 spur-split 585 585 _____P________ -1 -26.0955 53.0148 99 7 160
1891032S12075 1891 1 SI MM NOT_NAMED 1891-02-09 03:00:00 NR -26.4428 53.1543 spur-split 608 608 _____P________ -1 -26.4428 53.1543 99 8 160
1891032S12075 1891 1 SI MM NOT_NAMED 1891-02-09 06:00:00 NR -26.8000 53.3000 reunion spur-split 646 646 _____O________ -1 -26.8000 53.3000 99 9.90000 8 161
1891032S12075 1891 1 SI MM NOT_NAMED 1891-02-09 09:00:00 NR -27.2274 53.4576 spur-split 682 682 _____P________ -1 -27.2274 53.4576 99 9 162
1891032S12075 1891 1 SI MM NOT_NAMED 1891-02-09 12:00:00 NR -27.6690 53.6256 spur-split 713 713 _____P________ -1 -27.6690 53.6256 99 9 161
1891032S12075 1891 1 SI MM NOT_NAMED 1891-02-09 15:00:00 NR -28.1137 53.7996 spur-split 750 750 _____P________ -1 -28.1137 53.7996 99 9 161
1891032S12075 1891 1 SI MM NOT_NAMED 1891-02-09 18:00:00 NR -28.5505 53.9753 spur-split 793 793 _____P________ -1 -28.5505 53.9753 99 9 160
1891032S12075 1891 1 SI MM NOT_NAMED 1891-02-09 21:00:00 NR -28.9685 54.1480 spur-split 824 824 _____P________ -1 -28.9685 54.1480 99 9 160
1891032S12075 1891 1 SI MM NOT_NAMED 1891-02-10 00:00:00 NR -29.3567 54.3129 spur-split 864 864 _____P________ -1 -29.3567 54.3129 99 8 159
1891032S12075 1891 1 SI MM NOT_NAMED 1891-02-10 03:00:00 NR -29.7042 54.4653 spur-split 898 898 _____P________ -1 -29.7042 54.4653 99 7 159
1891032S12075 1891 1 SI MM NOT_NAMED 1891-02-10 06:00:00 NR -30.0000 54.6000 reunion spur-split 925 925 _____O________ -1 -30.0000 54.6000 99 9.90000 6 158
1891032S12075 1891 1 SI MM NOT_NAMED 1891-02-10 09:00:00 NR -30.2364 54.7133 spur-split 946 946 _____P________ -1 -30.2364 54.7133 99 5 157
1891032S12075 1891 1 SI MM NOT_NAMED 1891-02-10 12:00:00 NR -30.4182 54.8065 spur-split 967 967 _____P________ -1 -30.4182 54.8065 99 3 155
1891032S12075 1891 1 SI MM NOT_NAMED 1891-02-10 15:00:00 NR -30.5533 54.8823 spur-split 988 988 _____P________ -1 -30.5533 54.8823 99 3 153
1891032S12075 1891 1 SI MM NOT_NAMED 1891-02-10 18:00:00 NR -30.6493 54.9435 spur-split 988 988 _____P________ -1 -30.6493 54.9435 99 2 148
1891032S12075 1891 1 SI MM NOT_NAMED 1891-02-10 21:00:00 NR -30.7142 54.9930 spur-split 1002 1002 _____P________ -1 -30.7142 54.9930 99 1 144
1891032S12075 1891 1 SI MM NOT_NAMED 1891-02-11 00:00:00 NR -30.7558 55.0336 spur-split 1009 1009 _____P________ -1 -30.7558 55.0336 99 1 134
1891032S12075 1891 1 SI MM NOT_NAMED 1891-02-11 03:00:00 NR -30.7818 55.0683 spur-split 1017 1017 _____P________ -1 -30.7818 55.0683 99 1 130
1891032S12075 1891 1 SI MM NOT_NAMED 1891-02-11 06:00:00 NR -30.8000 55.1000 reunion spur-split 1017 _____O________ -1 -30.8000 55.1000 99 9.90000 1 0

About IBTrACS Database

This database is a web-friendly format of International Best Track Archive for Climate Stewardship (IBTrACS), a global best track data archive curated by NOAA dating back to 1842.

Updated: 2021-10-21